Time;durP1;ratioP1;P1;durP2;ratioP2;P2;SDS_P1;SDS_P2;PMS_P1;PMS_P2;Temp;Humidity;BMP_temperature;BMP_pressure;BME280_temperature;BME280_humidity;BME280_pressure;Samples;Min_cycle;Max_cycle;Signal;HPM_P1;HPM_P2
2022/06/19 00:00:24;;;;;;;14.82;3.70;;;;;;;;;;5040192;28;20041;-70
2022/06/19 00:02:50;;;;;;;8.77;3.05;;;;;;;;;;5040860;28;20413;-70
2022/06/19 00:05:15;;;;;;;9.93;3.20;;;;;;;;;;5039067;28;20044;-70
2022/06/19 00:07:42;;;;;;;6.07;3.05;;;;;;;;;;5038879;28;20036;-70
2022/06/19 00:10:09;;;;;;;6.82;3.22;;;;;;;;;;5039929;28;20029;-70
2022/06/19 00:12:34;;;;;;;6.63;2.72;;;;;;;;;;5039984;28;20037;-70
2022/06/19 00:15:00;;;;;;;8.57;3.05;;;;;;;;;;5040378;28;20033;-70
2022/06/19 00:17:25;;;;;;;8.20;3.05;;;;;;;;;;5021538;28;20045;-69
2022/06/19 00:19:51;;;;;;;5.68;2.60;;;;;;;;;;5039521;28;20098;-70
2022/06/19 00:22:17;;;;;;;11.90;3.00;;;;;;;;;;5040473;28;20493;-70
2022/06/19 00:24:42;;;;;;;6.38;3.05;;;;;;;;;;5040238;28;20040;-70
2022/06/19 00:27:08;;;;;;;6.63;2.20;;;;;;;;;;5022050;28;20072;-70
2022/06/19 00:29:33;;;;;;;14.65;3.00;;;;;;;;;;5020664;28;20036;-69
2022/06/19 00:31:59;;;;;;;10.25;2.40;;;;;;;;;;5040146;28;20036;-70
2022/06/19 00:34:24;;;;;;;3.67;2.10;;;;;;;;;;5040492;28;20056;-70
2022/06/19 00:36:51;;;;;;;7.22;2.30;;;;;;;;;;5039857;28;20111;-70
2022/06/19 00:39:20;;;;;;;6.00;2.40;;;;;;;;;;5040221;28;20048;-70
2022/06/19 00:41:47;;;;;;;5.35;2.10;;;;;;;;;;5040544;28;20041;-70
2022/06/19 00:44:14;;;;;;;4.85;2.28;;;;;;;;;;5040962;28;20067;-70
2022/06/19 00:46:43;;;;;;;7.15;2.40;;;;;;;;;;5040714;28;20029;-70
2022/06/19 00:49:12;;;;;;;7.18;2.35;;;;;;;;;;5041137;28;20470;-70
2022/06/19 00:51:37;;;;;;;6.57;2.40;;;;;;;;;;5039902;28;20493;-70
2022/06/19 00:54:03;;;;;;;6.35;2.53;;;;;;;;;;5040926;28;20021;-70
2022/06/19 00:56:30;;;;;;;4.72;2.20;;;;;;;;;;5040701;28;20568;-70
2022/06/19 00:58:55;;;;;;;7.18;2.00;;;;;;;;;;5040800;28;20037;-70
2022/06/19 01:01:24;;;;;;;5.55;2.30;;;;;;;;;;5039476;28;20957;-70
2022/06/19 01:04:01;;;;;;;3.58;2.17;;;;;;;;;;5040619;28;20580;-70
2022/06/19 01:06:27;;;;;;;5.70;2.08;;;;;;;;;;5022987;28;20098;-70
2022/06/19 01:08:53;;;;;;;6.00;2.10;;;;;;;;;;5040528;28;20092;-70
2022/06/19 01:11:21;;;;;;;10.52;2.60;;;;;;;;;;5043586;28;20095;-70
2022/06/19 01:13:47;;;;;;;8.38;2.50;;;;;;;;;;5044129;28;20211;-70
2022/06/19 01:16:14;;;;;;;6.47;2.45;;;;;;;;;;5026844;28;20047;-70
2022/06/19 01:18:40;;;;;;;7.80;2.80;;;;;;;;;;5044699;28;20143;-70
2022/06/19 01:21:25;;;;;;;5.20;2.20;;;;;;;;;;5041389;28;20497;-68
2022/06/19 01:24:23;;;;;;;3.17;2.20;;;;;;;;;;5044040;28;20043;-70
2022/06/19 01:26:52;;;;;;;4.60;2.60;;;;;;;;;;5044488;28;20040;-71
2022/06/19 01:29:19;;;;;;;4.53;2.55;;;;;;;;;;5044696;28;20021;-68
2022/06/19 01:31:45;;;;;;;9.05;2.38;;;;;;;;;;5043960;28;20075;-68
2022/06/19 01:34:28;;;;;;;4.80;2.60;;;;;;;;;;5043758;28;20057;-68
2022/06/19 01:36:55;;;;;;;7.38;2.47;;;;;;;;;;5044116;28;20029;-71
2022/06/19 01:39:23;;;;;;;4.70;2.22;;;;;;;;;;5044401;28;20359;-68
2022/06/19 01:41:48;;;;;;;7.93;2.30;;;;;;;;;;5039923;28;20039;-68
2022/06/19 01:44:14;;;;;;;3.67;1.98;;;;;;;;;;5044064;28;20037;-70
2022/06/19 01:46:39;;;;;;;3.90;2.30;;;;;;;;;;5043422;28;20124;-71
2022/06/19 01:49:05;;;;;;;8.43;2.30;;;;;;;;;;5044316;28;20032;-68
2022/06/19 01:51:32;;;;;;;7.07;2.58;;;;;;;;;;5043508;28;21119;-68
2022/06/19 01:54:02;;;;;;;4.47;2.22;;;;;;;;;;5044365;28;20041;-69
2022/06/19 01:56:29;;;;;;;4.88;2.35;;;;;;;;;;5043419;28;20643;-68
2022/06/19 01:58:59;;;;;;;9.52;2.65;;;;;;;;;;5043813;28;20041;-68
2022/06/19 02:01:26;;;;;;;5.78;2.70;;;;;;;;;;5043445;28;20112;-68
2022/06/19 02:03:56;;;;;;;7.25;2.88;;;;;;;;;;5044250;28;20116;-68
2022/06/19 02:06:27;;;;;;;6.47;2.60;;;;;;;;;;5043959;28;20044;-68
2022/06/19 02:08:53;;;;;;;7.40;2.70;;;;;;;;;;5042730;28;20044;-68
2022/06/19 02:11:20;;;;;;;5.75;2.65;;;;;;;;;;5043386;28;20037;-68
2022/06/19 02:13:46;;;;;;;9.52;2.90;;;;;;;;;;5043759;28;20387;-68
2022/06/19 02:16:17;;;;;;;11.30;3.30;;;;;;;;;;5043741;28;20045;-68
2022/06/19 02:18:50;;;;;;;17.58;3.53;;;;;;;;;;5042749;28;20029;-68
2022/06/19 02:21:31;;;;;;;11.32;3.40;;;;;;;;;;5024844;28;20273;-68
2022/06/19 02:23:57;;;;;;;10.57;3.38;;;;;;;;;;5044064;28;20647;-71
2022/06/19 02:26:22;;;;;;;9.32;3.28;;;;;;;;;;5043473;28;20968;-68
2022/06/19 02:28:50;;;;;;;9.00;3.75;;;;;;;;;;5043270;28;20037;-68
2022/06/19 02:31:18;;;;;;;5.97;3.15;;;;;;;;;;5042102;28;20630;-68
2022/06/19 02:33:47;;;;;;;12.88;3.35;;;;;;;;;;5043274;28;20039;-68
2022/06/19 02:36:32;;;;;;;11.80;3.95;;;;;;;;;;5043222;28;20218;-68
2022/06/19 02:39:00;;;;;;;11.25;3.50;;;;;;;;;;5043372;28;20051;-69
2022/06/19 02:41:30;;;;;;;10.07;3.50;;;;;;;;;;5041830;28;20045;-68
2022/06/19 02:44:00;;;;;;;9.75;3.40;;;;;;;;;;5043232;28;20072;-69
2022/06/19 02:46:25;;;;;;;13.57;3.40;;;;;;;;;;5025209;28;20064;-71
2022/06/19 02:48:51;;;;;;;10.55;3.70;;;;;;;;;;5043087;28;20075;-68
2022/06/19 02:51:16;;;;;;;7.05;2.97;;;;;;;;;;5041830;28;20083;-69
2022/06/19 02:53:41;;;;;;;7.40;3.42;;;;;;;;;;5042630;28;20037;-68
2022/06/19 02:56:07;;;;;;;7.50;3.10;;;;;;;;;;5043107;28;20083;-69
2022/06/19 02:58:32;;;;;;;10.75;3.10;;;;;;;;;;5024943;28;20041;-68
2022/06/19 03:00:58;;;;;;;11.07;3.40;;;;;;;;;;5042397;28;20041;-69
2022/06/19 03:03:31;;;;;;;8.30;3.10;;;;;;;;;;5042169;28;20099;-68
2022/06/19 03:05:57;;;;;;;13.82;3.05;;;;;;;;;;5043065;28;20940;-69
2022/06/19 03:08:22;;;;;;;6.80;2.83;;;;;;;;;;5042495;28;20041;-69
2022/06/19 03:10:48;;;;;;;6.68;2.80;;;;;;;;;;5042415;28;20416;-69
2022/06/19 03:13:17;;;;;;;10.75;3.25;;;;;;;;;;5041539;28;20091;-69
2022/06/19 03:15:42;;;;;;;9.20;4.28;;;;;;;;;;5042515;28;20043;-69
2022/06/19 03:18:08;;;;;;;13.35;3.17;;;;;;;;;;5042435;28;20036;-69
2022/06/19 03:20:33;;;;;;;7.03;3.10;;;;;;;;;;5042027;28;20041;-69
2022/06/19 03:22:59;;;;;;;6.22;2.72;;;;;;;;;;5042685;28;20110;-69
2022/06/19 03:25:24;;;;;;;10.05;2.90;;;;;;;;;;5041552;28;20036;-69
2022/06/19 03:27:50;;;;;;;6.20;2.90;;;;;;;;;;5041832;28;20040;-68
2022/06/19 03:30:18;;;;;;;7.60;2.70;;;;;;;;;;5041421;28;20048;-69
2022/06/19 03:32:48;;;;;;;;;;;;;;;;;;5042229;28;20387;-69
2022/06/19 03:35:17;;;;;;;10.85;7.85;;;;;;;;;;5041846;28;20316;-69
2022/06/19 03:37:42;;;;;;;13.77;5.05;;;;;;;;;;5041599;28;20096;-69
2022/06/19 03:40:09;;;;;;;11.30;4.03;;;;;;;;;;5041472;28;20033;-69
2022/06/19 03:42:34;;;;;;;7.30;3.33;;;;;;;;;;5042182;28;20082;-69
2022/06/19 03:45:00;;;;;;;8.30;3.40;;;;;;;;;;5041944;28;20036;-69
2022/06/19 03:47:26;;;;;;;10.00;3.75;;;;;;;;;;5040984;28;20051;-69
2022/06/19 03:49:52;;;;;;;16.45;3.60;;;;;;;;;;5041519;28;20037;-68
2022/06/19 03:52:18;;;;;;;9.02;3.50;;;;;;;;;;5042134;28;20064;-68
2022/06/19 03:54:43;;;;;;;8.80;3.25;;;;;;;;;;5042010;28;20115;-69
2022/06/19 03:57:12;;;;;;;7.82;3.00;;;;;;;;;;5023185;28;20081;-69
2022/06/19 03:59:37;;;;;;;19.38;3.53;;;;;;;;;;5007367;28;20037;-68
2022/06/19 04:02:04;;;;;;;8.77;3.25;;;;;;;;;;5023481;28;20040;-69
2022/06/19 04:04:30;;;;;;;9.13;3.22;;;;;;;;;;5041541;28;20166;-68
2022/06/19 04:06:56;;;;;;;7.75;2.90;;;;;;;;;;5041614;28;20033;-68
2022/06/19 04:09:21;;;;;;;9.90;3.13;;;;;;;;;;5040466;28;20417;-68
2022/06/19 04:11:46;;;;;;;8.65;3.55;;;;;;;;;;5041069;28;20045;-70
2022/06/19 04:14:13;;;;;;;12.70;3.40;;;;;;;;;;5041293;28;20068;-70
2022/06/19 04:16:39;;;;;;;10.77;3.30;;;;;;;;;;5041619;28;21110;-70
2022/06/19 04:19:06;;;;;;;8.70;2.95;;;;;;;;;;5041031;28;20037;-70
2022/06/19 04:21:35;;;;;;;11.35;3.05;;;;;;;;;;5040525;28;20045;-71
2022/06/19 04:24:04;;;;;;;13.88;2.95;;;;;;;;;;5041186;28;20040;-70
2022/06/19 04:26:32;;;;;;;10.75;3.38;;;;;;;;;;5041505;28;20036;-69
2022/06/19 04:28:58;;;;;;;18.20;3.05;;;;;;;;;;5041177;28;20036;-70
2022/06/19 04:31:24;;;;;;;8.65;2.92;;;;;;;;;;5039869;28;20047;-70
2022/06/19 04:33:50;;;;;;;9.65;3.35;;;;;;;;;;5041853;28;20374;-70
2022/06/19 04:36:18;;;;;;;16.10;3.00;;;;;;;;;;5041301;28;20032;-69
2022/06/19 04:38:46;;;;;;;7.47;2.95;;;;;;;;;;5040610;28;20036;-68
2022/06/19 04:41:15;;;;;;;11.32;3.00;;;;;;;;;;5039787;28;20049;-69
2022/06/19 04:43:41;;;;;;;15.15;3.40;;;;;;;;;;5040857;28;20416;-69
2022/06/19 04:46:07;;;;;;;12.95;3.78;;;;;;;;;;5040204;28;20045;-69
2022/06/19 04:48:33;;;;;;;11.90;2.92;;;;;;;;;;5040791;28;20029;-69
2022/06/19 04:50:59;;;;;;;10.70;3.13;;;;;;;;;;5040578;28;20098;-69
2022/06/19 04:53:25;;;;;;;12.55;3.40;;;;;;;;;;5039938;28;20040;-69
2022/06/19 04:55:51;;;;;;;8.88;3.40;;;;;;;;;;5040944;28;20146;-70
2022/06/19 04:58:17;;;;;;;10.10;3.38;;;;;;;;;;5040778;28;20047;-70
2022/06/19 05:00:42;;;;;;;11.70;3.97;;;;;;;;;;5041478;28;20509;-69
2022/06/19 05:03:08;;;;;;;17.60;3.30;;;;;;;;;;5040249;28;20385;-69
2022/06/19 05:05:33;;;;;;;11.23;3.50;;;;;;;;;;5040427;28;20048;-69
2022/06/19 05:07:59;;;;;;;16.25;3.97;;;;;;;;;;5022611;28;20048;-69
2022/06/19 05:10:24;;;;;;;16.23;3.42;;;;;;;;;;5040484;28;20048;-69
2022/06/19 05:12:55;;;;;;;9.70;3.47;;;;;;;;;;5040850;28;20037;-69
2022/06/19 05:15:21;;;;;;;12.93;3.55;;;;;;;;;;5040008;28;20697;-69
2022/06/19 05:17:46;;;;;;;11.88;3.17;;;;;;;;;;5040283;28;20048;-69
2022/06/19 05:20:12;;;;;;;11.60;3.47;;;;;;;;;;5040306;28;20496;-69
2022/06/19 05:22:37;;;;;;;15.30;4.22;;;;;;;;;;5040615;28;20041;-69
2022/06/19 05:25:08;;;;;;;14.18;3.78;;;;;;;;;;5040917;28;20079;-69
2022/06/19 05:27:37;;;;;;;18.25;3.70;;;;;;;;;;5039994;28;20033;-69
2022/06/19 05:30:05;;;;;;;10.18;3.28;;;;;;;;;;5040359;28;20041;-70
2022/06/19 05:32:30;;;;;;;14.27;3.20;;;;;;;;;;5022917;28;20090;-70
2022/06/19 05:34:56;;;;;;;16.67;3.15;;;;;;;;;;5040585;28;20045;-70
2022/06/19 05:37:21;;;;;;;9.55;2.95;;;;;;;;;;5005495;28;20086;-70
2022/06/19 05:39:47;;;;;;;12.68;3.95;;;;;;;;;;5040554;28;20039;-70
2022/06/19 05:42:12;;;;;;;15.57;3.45;;;;;;;;;;5040099;28;20064;-70
2022/06/19 05:44:37;;;;;;;13.05;3.40;;;;;;;;;;5040406;28;20036;-70
2022/06/19 05:47:03;;;;;;;16.30;3.40;;;;;;;;;;5039905;28;20045;-69
2022/06/19 05:49:31;;;;;;;15.90;3.80;;;;;;;;;;5038403;28;20041;-70
2022/06/19 05:51:57;;;;;;;13.27;3.63;;;;;;;;;;5039063;28;20394;-70
2022/06/19 05:54:23;;;;;;;14.80;3.50;;;;;;;;;;5039863;28;20116;-70
2022/06/19 05:56:48;;;;;;;14.70;3.53;;;;;;;;;;5042446;28;20960;-70
2022/06/19 05:59:13;;;;;;;12.95;2.97;;;;;;;;;;5042624;28;20045;-70
2022/06/19 06:01:39;;;;;;;13.40;3.45;;;;;;;;;;5043351;28;20086;-70
2022/06/19 06:04:04;;;;;;;20.65;3.00;;;;;;;;;;5043868;28;20409;-70
2022/06/19 06:06:31;;;;;;;15.25;3.47;;;;;;;;;;5044155;28;20037;-70
2022/06/19 06:08:56;;;;;;;17.83;3.60;;;;;;;;;;5043977;28;20468;-70
2022/06/19 06:11:23;;;;;;;23.90;3.83;;;;;;;;;;5042780;28;20061;-70
2022/06/19 06:13:49;;;;;;;15.55;3.70;;;;;;;;;;5043847;28;20045;-70
2022/06/19 06:16:18;;;;;;;22.52;4.00;;;;;;;;;;5043768;28;20063;-70
2022/06/19 06:18:44;;;;;;;17.48;3.47;;;;;;;;;;5043334;28;20839;-70
2022/06/19 06:21:13;;;;;;;18.83;4.35;;;;;;;;;;5042590;28;20041;-70
2022/06/19 06:23:38;;;;;;;17.38;3.83;;;;;;;;;;5043868;28;20032;-70
2022/06/19 06:26:17;;;;;;;13.48;3.20;;;;;;;;;;5043667;28;20033;-70
2022/06/19 06:28:45;;;;;;;17.23;4.00;;;;;;;;;;5043057;28;20068;-70
2022/06/19 06:31:11;;;;;;;14.57;4.25;;;;;;;;;;5042280;28;20592;-70
2022/06/19 06:33:37;;;;;;;17.70;4.05;;;;;;;;;;5043246;28;20036;-70
2022/06/19 06:36:04;;;;;;;17.15;3.63;;;;;;;;;;5043388;28;20048;-70
2022/06/19 06:38:30;;;;;;;14.07;3.70;;;;;;;;;;5043402;28;20508;-70
2022/06/19 06:40:55;;;;;;;14.27;4.47;;;;;;;;;;5042925;28;20040;-70
2022/06/19 06:43:21;;;;;;;19.17;3.90;;;;;;;;;;5041400;28;20040;-70
2022/06/19 06:45:48;;;;;;;22.20;3.58;;;;;;;;;;5041478;28;20052;-70
2022/06/19 06:48:15;;;;;;;21.25;3.45;;;;;;;;;;5042847;28;20041;-70
2022/06/19 06:50:41;;;;;;;13.63;3.28;;;;;;;;;;5042144;28;20044;-70
2022/06/19 06:53:08;;;;;;;16.88;3.65;;;;;;;;;;5044648;28;20029;-69
2022/06/19 06:55:38;;;;;;;14.05;3.10;;;;;;;;;;5046455;28;20040;-69
2022/06/19 06:58:04;;;;;;;15.57;3.58;;;;;;;;;;5045393;28;20060;-69
2022/06/19 07:00:29;;;;;;;15.75;3.55;;;;;;;;;;5046988;28;20033;-69
2022/06/19 07:02:54;;;;;;;16.60;3.97;;;;;;;;;;5047282;28;20037;-69
2022/06/19 07:05:20;;;;;;;19.00;3.88;;;;;;;;;;5046174;28;20068;-69
2022/06/19 07:07:45;;;;;;;21.73;4.20;;;;;;;;;;5045371;28;20507;-70
2022/06/19 07:10:11;;;;;;;14.30;3.33;;;;;;;;;;5046277;28;20120;-69
2022/06/19 07:12:38;;;;;;;17.80;3.70;;;;;;;;;;5044103;28;20074;-69
2022/06/19 07:15:04;;;;;;;20.15;3.97;;;;;;;;;;5045044;28;20061;-69
2022/06/19 07:17:29;;;;;;;14.77;3.50;;;;;;;;;;5043603;28;20476;-69
2022/06/19 07:19:55;;;;;;;19.30;3.45;;;;;;;;;;5042524;28;20040;-69
2022/06/19 07:22:20;;;;;;;12.95;3.80;;;;;;;;;;5044650;28;20064;-69
2022/06/19 07:24:48;;;;;;;14.90;3.83;;;;;;;;;;5044758;28;20029;-70
2022/06/19 07:27:14;;;;;;;22.88;4.10;;;;;;;;;;5043140;28;20057;-70
2022/06/19 07:29:44;;;;;;;10.07;3.53;;;;;;;;;;5044402;28;20068;-70
2022/06/19 07:32:11;;;;;;;20.73;3.95;;;;;;;;;;5043613;28;20043;-69
2022/06/19 07:34:38;;;;;;;19.00;3.88;;;;;;;;;;5043482;28;20032;-69
2022/06/19 07:37:04;;;;;;;17.92;3.60;;;;;;;;;;5041812;28;20037;-70
2022/06/19 07:39:31;;;;;;;17.27;3.97;;;;;;;;;;5039674;28;20132;-69
2022/06/19 07:41:56;;;;;;;19.40;3.35;;;;;;;;;;5039404;28;20090;-69
2022/06/19 07:44:22;;;;;;;19.17;3.97;;;;;;;;;;5040810;28;20044;-69
2022/06/19 07:52:16;;;;;;;17.45;3.65;;;;;;;;;;5040319;28;20697;-69
2022/06/19 07:54:41;;;;;;;18.98;4.18;;;;;;;;;;5039845;28;20052;-70
2022/06/19 07:57:06;;;;;;;15.00;3.30;;;;;;;;;;5040003;28;20044;-70
2022/06/19 07:59:32;;;;;;;13.40;3.95;;;;;;;;;;5020787;28;20418;-70
2022/06/19 08:01:57;;;;;;;11.48;3.33;;;;;;;;;;5040104;28;20041;-70
2022/06/19 08:04:23;;;;;;;20.75;3.85;;;;;;;;;;5040512;28;20098;-69
2022/06/19 08:06:50;;;;;;;16.42;4.07;;;;;;;;;;5038297;28;20056;-69
2022/06/19 08:09:15;;;;;;;18.25;4.18;;;;;;;;;;5037381;28;20281;-69
2022/06/19 08:11:41;;;;;;;12.90;3.67;;;;;;;;;;5037797;28;20841;-69
2022/06/19 08:14:06;;;;;;;18.38;4.63;;;;;;;;;;5040314;28;20041;-69
2022/06/19 08:16:32;;;;;;;15.00;3.70;;;;;;;;;;5040682;28;20045;-69
2022/06/19 08:18:58;;;;;;;18.80;4.00;;;;;;;;;;5040487;28;20154;-69
2022/06/19 08:21:24;;;;;;;16.63;3.83;;;;;;;;;;5039499;28;20059;-68
2022/06/19 08:23:49;;;;;;;21.33;3.95;;;;;;;;;;5040747;28;20750;-69
2022/06/19 08:26:15;;;;;;;18.00;3.80;;;;;;;;;;5040634;28;20047;-69
2022/06/19 08:29:00;;;;;;;18.70;3.70;;;;;;;;;;5040550;28;20028;-69
2022/06/19 08:31:26;;;;;;;18.75;3.88;;;;;;;;;;5037489;28;20048;-69
2022/06/19 08:33:52;;;;;;;14.98;3.83;;;;;;;;;;5037812;28;20032;-69
2022/06/19 08:36:18;;;;;;;28.77;4.18;;;;;;;;;;5037486;28;20059;-69
2022/06/19 08:38:47;;;;;;;20.90;4.22;;;;;;;;;;5038335;28;20039;-69
2022/06/19 08:41:39;;;;;;;16.42;3.30;;;;;;;;;;5038025;28;20409;-69
2022/06/19 08:44:32;;;;;;;18.08;3.75;;;;;;;;;;5035587;28;20142;-69
2022/06/19 08:47:27;;;;;;;20.23;3.47;;;;;;;;;;5039379;28;20127;-69
2022/06/19 08:49:58;;;;;;;19.38;4.10;;;;;;;;;;5022663;28;20041;-69
2022/06/19 08:52:51;;;;;;;19.77;4.00;;;;;;;;;;5040105;28;20058;-68
2022/06/19 08:55:23;;;;;;;20.17;4.35;;;;;;;;;;5016943;28;20991;-69
2022/06/19 08:58:20;;;;;;;25.05;4.22;;;;;;;;;;5039799;28;20029;-69
2022/06/19 09:00:58;;;;;;;21.88;4.13;;;;;;;;;;5038864;28;20064;-69
2022/06/19 09:06:34;;;;;;;18.80;4.43;;;;;;;;;;4997427;28;20059;-68
2022/06/19 09:09:05;;;;;;;20.55;4.47;;;;;;;;;;5039705;28;20041;-69
2022/06/19 09:11:50;;;;;;;22.05;4.10;;;;;;;;;;5039991;28;20044;-69
2022/06/19 09:14:57;;;;;;;25.92;4.43;;;;;;;;;;5039987;28;20515;-69
2022/06/19 09:17:32;;;;;;;15.68;4.00;;;;;;;;;;4958899;28;20039;-69
2022/06/19 09:20:12;;;;;;;23.33;4.75;;;;;;;;;;5030614;28;20117;-69
2022/06/19 09:22:49;;;;;;;16.15;3.65;;;;;;;;;;5039779;28;20045;-69
2022/06/19 09:25:18;;;;;;;24.30;4.20;;;;;;;;;;5039629;28;20040;-68
2022/06/19 09:27:57;;;;;;;19.38;4.57;;;;;;;;;;5038882;28;20430;-68
2022/06/19 09:30:46;;;;;;;22.55;3.83;;;;;;;;;;5039643;28;21687;-69
2022/06/19 09:33:23;;;;;;;21.98;4.18;;;;;;;;;;5043516;28;20040;-69
2022/06/19 09:36:17;;;;;;;16.65;4.53;;;;;;;;;;5043521;28;20041;-69
2022/06/19 09:39:03;;;;;;;23.98;4.10;;;;;;;;;;5015542;28;20040;-70
2022/06/19 09:41:37;;;;;;;20.60;4.63;;;;;;;;;;5010715;28;20055;-70
2022/06/19 09:44:15;;;;;;;14.38;4.03;;;;;;;;;;5043726;28;20052;-69
2022/06/19 09:46:51;;;;;;;23.25;4.03;;;;;;;;;;5042710;28;20512;-69
2022/06/19 09:49:23;;;;;;;15.38;3.95;;;;;;;;;;5046822;28;20063;-69
2022/06/19 09:52:12;;;;;;;20.48;4.60;;;;;;;;;;5047690;28;20218;-68
2022/06/19 09:54:44;;;;;;;23.03;4.60;;;;;;;;;;5043204;28;20055;-67
2022/06/19 09:57:17;;;;;;;19.20;4.55;;;;;;;;;;5043444;28;20326;-67
2022/06/19 09:59:55;;;;;;;19.05;4.50;;;;;;;;;;5041683;28;20053;-67
2022/06/19 10:02:34;;;;;;;20.80;4.32;;;;;;;;;;5043126;28;20477;-68
2022/06/19 10:05:12;;;;;;;18.70;5.05;;;;;;;;;;5043523;28;20048;-67
2022/06/19 10:07:45;;;;;;;11.18;4.40;;;;;;;;;;5043788;28;20112;-70
2022/06/19 10:10:56;;;;;;;18.58;4.38;;;;;;;;;;5044328;28;20040;-69
2022/06/19 10:13:36;;;;;;;15.75;4.22;;;;;;;;;;4926986;29;20054;-68
2022/06/19 10:16:11;;;;;;;13.95;5.22;;;;;;;;;;5038956;28;20107;-70
2022/06/19 10:18:43;;;;;;;19.88;4.82;;;;;;;;;;5043022;28;20087;-70
2022/06/19 10:24:47;;;;;;;18.67;4.78;;;;;;;;;;5042996;28;20063;-68
2022/06/19 10:27:41;;;;;;;20.33;4.88;;;;;;;;;;5042376;28;20048;-70
2022/06/19 10:30:08;;;;;;;24.33;4.55;;;;;;;;;;5044044;28;20116;-69
2022/06/19 10:32:52;;;;;;;15.00;4.57;;;;;;;;;;5007434;28;20048;-68
2022/06/19 10:35:42;;;;;;;19.05;4.78;;;;;;;;;;5043604;28;20044;-69
2022/06/19 10:38:13;;;;;;;16.15;4.40;;;;;;;;;;5042968;28;20425;-69
2022/06/19 10:40:39;;;;;;;12.45;4.43;;;;;;;;;;5042567;28;20405;-69
2022/06/19 10:43:32;;;;;;;14.85;4.63;;;;;;;;;;5043259;28;20041;-68
2022/06/19 10:46:04;;;;;;;20.38;4.88;;;;;;;;;;5042758;28;20060;-70
2022/06/19 10:48:53;;;;;;;22.50;4.53;;;;;;;;;;5051780;28;20037;-71
2022/06/19 10:51:43;;;;;;;20.77;4.85;;;;;;;;;;5005386;28;20037;-69
2022/06/19 10:54:36;;;;;;;14.70;5.07;;;;;;;;;;5040200;28;20052;-69
2022/06/19 10:57:13;;;;;;;18.60;4.72;;;;;;;;;;5040432;28;20291;-69
2022/06/19 10:59:38;;;;;;;20.38;4.85;;;;;;;;;;5039635;28;20040;-69
2022/06/19 11:05:37;;;;;;;13.03;4.93;;;;;;;;;;4960074;28;20644;-69
2022/06/19 11:08:03;;;;;;;15.55;4.32;;;;;;;;;;5021990;28;20295;-69
2022/06/19 11:10:44;;;;;;;21.02;5.10;;;;;;;;;;5039128;28;20053;-69
2022/06/19 11:13:10;;;;;;;13.15;4.63;;;;;;;;;;5040299;28;20041;-68
2022/06/19 11:15:48;;;;;;;15.63;5.05;;;;;;;;;;5039663;28;20099;-69
2022/06/19 11:18:21;;;;;;;25.08;5.03;;;;;;;;;;5039649;28;20032;-68
2022/06/19 11:21:11;;;;;;;17.33;4.72;;;;;;;;;;5038402;28;20049;-69
2022/06/19 11:23:48;;;;;;;14.00;5.05;;;;;;;;;;5039275;28;20036;-68
2022/06/19 11:26:20;;;;;;;22.58;5.05;;;;;;;;;;5039708;28;20048;-69
2022/06/19 11:29:00;;;;;;;17.20;5.18;;;;;;;;;;5038761;28;20048;-70
2022/06/19 11:31:29;;;;;;;25.45;5.28;;;;;;;;;;5039446;28;20053;-69
2022/06/19 11:34:00;;;;;;;18.63;5.00;;;;;;;;;;5040366;28;20482;-69
2022/06/19 11:36:34;;;;;;;14.90;5.03;;;;;;;;;;5022017;28;20079;-68
2022/06/19 11:39:01;;;;;;;12.98;4.90;;;;;;;;;;5035693;28;20032;-71
2022/06/19 11:41:29;;;;;;;16.50;4.72;;;;;;;;;;5035285;28;20053;-69
2022/06/19 11:44:13;;;;;;;14.20;4.82;;;;;;;;;;5039120;28;20067;-71
2022/06/19 11:46:53;;;;;;;23.33;5.35;;;;;;;;;;5038331;28;20064;-69
2022/06/19 11:49:30;;;;;;;21.83;5.10;;;;;;;;;;5039361;28;20037;-69
2022/06/19 11:51:59;;;;;;;17.35;4.85;;;;;;;;;;5038104;28;20068;-69
2022/06/19 11:54:30;;;;;;;21.70;5.05;;;;;;;;;;5037630;28;20037;-69
2022/06/19 11:56:56;;;;;;;20.48;5.40;;;;;;;;;;5039113;28;20547;-69
2022/06/19 11:59:41;;;;;;;14.70;4.75;;;;;;;;;;5039443;28;20056;-69
2022/06/19 12:02:40;;;;;;;18.48;5.03;;;;;;;;;;5036850;28;20055;-69
2022/06/19 12:05:31;;;;;;;16.65;4.70;;;;;;;;;;5032395;28;20049;-69
2022/06/19 12:08:06;;;;;;;20.50;5.07;;;;;;;;;;5038746;28;20049;-70
2022/06/19 12:10:35;;;;;;;25.20;5.38;;;;;;;;;;5038774;28;20033;-70
2022/06/19 12:13:04;;;;;;;15.10;4.85;;;;;;;;;;5020241;28;20036;-70
2022/06/19 12:15:35;;;;;;;20.85;5.30;;;;;;;;;;5039845;28;20511;-71
2022/06/19 12:18:13;;;;;;;16.05;4.57;;;;;;;;;;5039170;28;20059;-69
2022/06/19 12:20:39;;;;;;;15.15;5.22;;;;;;;;;;5039205;28;20430;-69
2022/06/19 12:23:11;;;;;;;15.57;5.32;;;;;;;;;;5038973;28;20052;-71
2022/06/19 12:25:48;;;;;;;18.38;5.07;;;;;;;;;;5038920;28;20055;-71
2022/06/19 12:28:28;;;;;;;20.85;4.88;;;;;;;;;;5039706;28;20535;-70
2022/06/19 12:31:14;;;;;;;19.73;5.13;;;;;;;;;;5038930;28;20827;-69
2022/06/19 12:33:45;;;;;;;13.32;4.57;;;;;;;;;;5038006;28;20132;-69
2022/06/19 12:36:20;;;;;;;20.38;5.00;;;;;;;;;;5022348;28;20120;-69
2022/06/19 12:38:47;;;;;;;16.67;5.07;;;;;;;;;;5038457;28;20048;-71
2022/06/19 12:41:39;;;;;;;27.08;5.07;;;;;;;;;;5021496;28;20479;-72
2022/06/19 12:44:18;;;;;;;18.48;5.45;;;;;;;;;;5039790;28;20045;-71
2022/06/19 12:47:14;;;;;;;19.63;5.28;;;;;;;;;;5038499;28;20045;-70
2022/06/19 12:50:24;;;;;;;16.30;5.32;;;;;;;;;;5037881;28;20045;-70
2022/06/19 12:52:55;;;;;;;20.67;5.40;;;;;;;;;;5012512;28;20110;-70
2022/06/19 12:55:51;;;;;;;17.58;4.55;;;;;;;;;;5035015;28;20036;-69
2022/06/19 12:58:47;;;;;;;17.05;4.72;;;;;;;;;;5038187;28;20046;-69
2022/06/19 13:01:39;;;;;;;20.38;5.10;;;;;;;;;;5038024;28;20095;-71
2022/06/19 13:04:28;;;;;;;15.18;5.00;;;;;;;;;;5038304;28;20045;-70
2022/06/19 13:06:53;;;;;;;20.70;4.85;;;;;;;;;;5036398;28;20444;-69
2022/06/19 13:09:34;;;;;;;22.70;5.60;;;;;;;;;;5039386;28;20584;-71
2022/06/19 13:12:09;;;;;;;20.92;5.22;;;;;;;;;;5038380;28;20045;-69
2022/06/19 13:14:40;;;;;;;20.90;5.47;;;;;;;;;;5038095;28;20048;-69
2022/06/19 13:17:15;;;;;;;16.73;5.28;;;;;;;;;;5037640;28;20049;-69
2022/06/19 13:19:54;;;;;;;18.73;4.68;;;;;;;;;;5037918;28;20056;-69
2022/06/19 13:22:34;;;;;;;17.02;5.38;;;;;;;;;;5034995;28;20045;-68
2022/06/19 13:25:16;;;;;;;13.80;4.47;;;;;;;;;;5037754;28;20481;-69
2022/06/19 13:28:19;;;;;;;15.45;5.57;;;;;;;;;;5036620;28;20450;-70
2022/06/19 13:30:53;;;;;;;13.73;4.55;;;;;;;;;;5035942;28;20047;-69
2022/06/19 13:33:25;;;;;;;16.33;4.78;;;;;;;;;;5037640;28;20063;-71
2022/06/19 13:36:11;;;;;;;16.33;5.47;;;;;;;;;;5036458;28;20086;-69
2022/06/19 13:38:54;;;;;;;12.25;4.93;;;;;;;;;;5037322;28;20500;-71
2022/06/19 13:41:55;;;;;;;20.10;5.25;;;;;;;;;;5036821;28;20037;-70
2022/06/19 13:44:54;;;;;;;22.15;5.57;;;;;;;;;;5037446;28;20059;-71
2022/06/19 13:47:29;;;;;;;18.45;5.45;;;;;;;;;;5019401;28;20537;-71
2022/06/19 13:50:13;;;;;;;18.80;5.25;;;;;;;;;;5036743;28;20091;-69
2022/06/19 13:52:44;;;;;;;20.23;5.68;;;;;;;;;;5037715;28;20056;-68
2022/06/19 13:55:26;;;;;;;15.82;5.22;;;;;;;;;;5038822;28;20056;-71
2022/06/19 13:58:00;;;;;;;17.33;5.38;;;;;;;;;;5037459;28;20029;-71
2022/06/19 14:00:36;;;;;;;17.30;5.13;;;;;;;;;;5037728;28;20045;-68
2022/06/19 14:03:23;;;;;;;15.02;5.47;;;;;;;;;;5036901;28;20041;-69
2022/06/19 14:05:51;;;;;;;16.38;5.25;;;;;;;;;;5037449;28;20123;-71
2022/06/19 14:08:28;;;;;;;13.85;5.22;;;;;;;;;;5020966;28;20037;-71
2022/06/19 14:11:01;;;;;;;15.55;5.20;;;;;;;;;;5036376;28;20045;-68
2022/06/19 14:13:31;;;;;;;19.00;5.07;;;;;;;;;;5036945;28;20048;-71
2022/06/19 14:16:19;;;;;;;20.40;5.47;;;;;;;;;;5036476;28;20049;-70
2022/06/19 14:18:50;;;;;;;18.95;5.45;;;;;;;;;;5040262;28;20036;-70
2022/06/19 14:21:36;;;;;;;19.27;6.22;;;;;;;;;;5040541;28;20131;-69
2022/06/19 14:24:32;;;;;;;28.05;6.25;;;;;;;;;;5040839;28;20488;-69
2022/06/19 14:27:11;;;;;;;19.67;4.82;;;;;;;;;;5041604;28;20041;-70
2022/06/19 14:29:49;;;;;;;23.33;5.57;;;;;;;;;;5041566;28;20083;-69
2022/06/19 14:32:44;;;;;;;14.60;5.10;;;;;;;;;;5041276;28;20025;-70
2022/06/19 14:35:19;;;;;;;20.63;6.38;;;;;;;;;;5013892;28;20140;-69
2022/06/19 14:37:49;;;;;;;24.33;5.38;;;;;;;;;;5040558;28;20074;-69
2022/06/19 14:40:23;;;;;;;18.17;5.57;;;;;;;;;;5040929;28;20174;-70
2022/06/19 14:42:50;;;;;;;16.17;5.45;;;;;;;;;;5040004;28;20129;-70
2022/06/19 14:45:22;;;;;;;16.17;5.57;;;;;;;;;;5039613;28;20037;-69
2022/06/19 14:48:04;;;;;;;18.33;5.85;;;;;;;;;;5040231;28;20124;-69
2022/06/19 14:50:51;;;;;;;19.30;6.13;;;;;;;;;;5040171;28;20060;-70
2022/06/19 14:54:03;;;;;;;18.73;4.95;;;;;;;;;;5039773;28;20064;-70
2022/06/19 14:57:01;;;;;;;17.77;5.45;;;;;;;;;;5021193;28;20141;-70
2022/06/19 14:59:31;;;;;;;18.27;5.05;;;;;;;;;;5000469;28;20041;-69
2022/06/19 15:01:57;;;;;;;20.73;5.53;;;;;;;;;;5038780;28;20055;-68
2022/06/19 15:04:29;;;;;;;16.40;5.40;;;;;;;;;;5040373;28;20041;-69
2022/06/19 15:07:05;;;;;;;18.90;5.63;;;;;;;;;;5038472;28;20046;-69
2022/06/19 15:09:44;;;;;;;17.67;5.43;;;;;;;;;;5040613;28;20059;-69
2022/06/19 15:12:22;;;;;;;12.73;5.55;;;;;;;;;;5039170;28;20052;-69
2022/06/19 15:15:03;;;;;;;17.83;5.60;;;;;;;;;;5039453;28;20945;-69
2022/06/19 15:17:45;;;;;;;17.35;5.72;;;;;;;;;;5039950;28;20114;-69